EDT,Max TemperatureF,Mean TemperatureF,Min TemperatureF,Max Dew PointF,MeanDew PointF,Min DewpointF,Max Humidity, Mean Humidity, Min Humidity, Max Sea Level PressureIn, Mean Sea Level PressureIn, Min Sea Level PressureIn, Max VisibilityMiles, Mean VisibilityMiles, Min VisibilityMiles, Max Wind SpeedMPH, Mean Wind SpeedMPH, Max Gust SpeedMPH,PrecipitationIn, CloudCover, Events, WindDirDegrees
2012-3-1,33,27,21,31,25,16,100,89,78,30.09,29.90,29.81,10,2,0,18,10,25,0.24,8,Fog-Snow,35
2012-3-2,30,24,19,26,19,13,86,80,72,30.22,30.15,30.03,10,10,5,10,6,,0.00,8,Snow,75
2012-3-3,42,35,28,38,32,26,100,91,62,29.97,29.60,29.34,10,4,0,8,4,,0.50,6,Fog-Rain-Snow,25
2012-3-4,39,32,26,24,20,17,78,56,41,29.70,29.63,29.56,10,10,10,9,4,,0.00,2,,235
2012-3-5,33,26,19,20,9,4,64,47,35,30.36,30.00,29.68,10,10,10,14,8,22,0.00,3,,292
2012-3-6,37,26,15,12,3,-3,58,42,18,30.60,30.53,30.35,10,10,10,12,7,17,0.00,0,,324
2012-3-7,57,40,24,30,23,9,75,48,29,30.58,30.39,30.23,10,10,9,12,4,18,0.00,0,,188
2012-3-8,68,58,48,46,42,31,74,56,39,30.23,29.98,29.66,10,10,10,20,12,32,0.00,2,,194
2012-3-9,60,46,32,46,22,11,88,54,26,30.18,30.04,29.70,10,8,1,23,12,32,0.01,5,Rain-Snow,294
2012-3-10,37,32,28,29,21,16,93,65,41,30.54,30.38,30.12,10,9,1,12,4,,0.00,6,Snow,360
2012-3-11,57,42,28,24,19,14,69,41,23,30.53,30.36,30.22,10,10,10,12,7,20,0.00,1,,199
2012-3-12,71,52,33,35,29,24,75,45,20,30.29,30.21,30.12,10,10,7,7,1,,0.00,0,,260
2012-3-13,72,60,50,54,46,35,94,64,46,30.10,29.98,29.88,10,9,2,14,4,20,0.27,6,Rain-Thunderstorm,206
2012-3-14,55,47,37,54,43,34,100,89,71,30.30,30.11,29.94,10,7,1,13,5,,0.20,8,Rain-Thunderstorm,102
2012-3-15,45,40,35,35,31,28,93,76,60,30.42,30.37,30.30,10,10,6,8,3,,0.00,7,,99
2012-3-16,43,38,35,40,35,30,93,84,70,30.38,30.22,30.11,10,8,2,10,4,,0.09,7,Rain,180
2012-3-17,51,44,37,40,39,36,97,80,62,30.40,30.33,30.20,10,9,6,7,1,,0.00,5,,75
2012-3-18,79,57,35,48,41,34,93,67,28,30.34,30.23,30.14,10,8,0,8,2,,0.00,0,Fog,203
2012-3-19,79,62,45,47,44,41,87,64,33,30.31,30.19,30.10,10,10,7,16,2,22,0.00,0,,75
2012-3-20,80,61,43,50,45,39,89,61,34,30.34,30.28,30.17,10,10,7,7,1,,0.00,0,,184
2012-3-21,82,66,51,54,48,34,86,56,17,30.35,30.28,30.21,10,10,10,9,3,,0.00,0,,200
2012-3-22,84,68,53,54,50,44,96,57,25,30.22,30.10,29.99,10,10,4,9,4,,0.00,0,,270
2012-3-23,73,66,57,52,33,16,63,33,16,30.15,30.08,30.01,10,10,10,21,12,28,0.00,1,,335
2012-3-24,57,52,46,31,23,10,52,35,18,30.19,30.12,30.05,10,10,10,12,7,,0.00,6,,152
2012-3-25,46,42,39,40,37,31,93,79,56,30.06,29.90,29.72,10,9,5,7,3,,0.08,8,Rain,91
2012-3-26,45,36,30,39,20,0,97,54,27,30.02,29.82,29.65,10,9,3,28,11,38,0.00,3,Rain,323
2012-3-27,46,35,24,-1,-5,-13,31,19,8,30.21,30.15,30.04,10,10,10,23,15,36,0.00,0,,328
2012-3-28,48,40,33,37,26,3,82,62,24,30.17,29.85,29.59,10,10,5,14,5,,0.06,8,Rain-Snow,87
2012-3-29,44,42,37,36,30,24,86,63,49,29.95,29.75,29.58,10,10,10,17,10,25,0.01,7,Rain,329
2012-3-30,48,40,33,24,12,3,62,35,16,30.07,30.01,29.95,10,10,10,22,9,29,0.00,2,,325
2012-3-31,48,41,36,29,22,14,76,50,35,30.09,29.99,29.91,10,10,9,9,4,,0.00,5,Snow,78